Time;durP1;ratioP1;P1;durP2;ratioP2;P2;SDS_P1;SDS_P2;PMS_P1;PMS_P2;Temp;Humidity;BMP_temperature;BMP_pressure;BME280_temperature;BME280_humidity;BME280_pressure;Samples;Min_cycle;Max_cycle;Signal;HPM_P1;HPM_P2
2023/11/06 00:02:00;;;;;;;8.73;2.60;;;9.70;99.90;;;8.96;100.00;99778.88;4170893;28;20026;-77
2023/11/06 00:04:01;;;;;;;6.22;1.25;;;9.70;99.90;;;8.95;100.00;99771.97;4170845;28;20056;-76
2023/11/06 00:06:03;;;;;;;12.38;1.38;;;9.70;99.90;;;8.96;100.00;99771.00;4170354;28;20025;-76
2023/11/06 00:08:05;;;;;;;8.82;1.30;;;9.70;99.90;;;8.94;100.00;99776.41;4170657;28;20511;-76
2023/11/06 00:10:11;;;;;;;5.75;1.65;;;9.70;99.90;;;8.90;100.00;99768.03;4169431;28;20049;-77
2023/11/06 00:12:12;;;;;;;7.05;1.10;;;9.70;99.90;;;8.85;100.00;99756.38;4169397;28;20068;-77
2023/11/06 00:14:13;;;;;;;8.65;0.90;;;9.60;99.90;;;8.80;100.00;99754.28;4170678;28;20440;-76
2023/11/06 00:16:14;;;;;;;7.75;1.55;;;9.50;99.90;;;8.76;100.00;99766.09;4169527;28;20049;-76
2023/11/06 00:18:15;;;;;;;6.20;0.70;;;9.50;99.90;;;8.69;100.00;99761.69;4170653;28;20476;-76
2023/11/06 00:20:16;;;;;;;5.35;1.30;;;9.50;99.90;;;8.59;100.00;99756.63;4169150;28;20032;-76
2023/11/06 00:22:17;;;;;;;4.18;1.30;;;9.40;99.90;;;8.53;100.00;99762.53;4170555;28;20044;-76
2023/11/06 00:24:18;;;;;;;2.20;1.00;;;9.30;99.90;;;8.43;100.00;99754.00;4170632;28;20033;-77
2023/11/06 00:26:19;;;;;;;7.40;1.10;;;9.20;99.90;;;8.33;100.00;99756.00;4169228;28;20037;-77
2023/11/06 00:28:20;;;;;;;5.05;0.80;;;9.10;99.90;;;8.26;100.00;99758.44;4169676;28;20029;-76
2023/11/06 00:30:20;;;;;;;3.47;0.80;;;9.00;99.90;;;8.18;100.00;99747.09;4170855;28;20029;-76
2023/11/06 00:32:22;;;;;;;4.38;1.00;;;9.00;99.90;;;8.15;100.00;99755.31;4170687;28;20051;-76
2023/11/06 00:34:23;;;;;;;5.35;0.80;;;8.90;99.90;;;8.04;100.00;99750.38;4170349;28;20479;-76
2023/11/06 00:36:24;;;;;;;4.63;1.00;;;8.80;99.90;;;7.98;100.00;99746.59;4168857;28;20135;-76
2023/11/06 00:38:24;;;;;;;3.95;1.50;;;8.70;99.90;;;7.92;100.00;99744.63;4170053;28;20029;-77
2023/11/06 00:40:25;;;;;;;5.75;1.15;;;8.60;99.90;;;7.85;100.00;99743.66;4168923;28;20033;-76
2023/11/06 00:42:26;;;;;;;4.68;1.10;;;8.60;99.90;;;7.79;100.00;99746.94;4170219;28;20079;-77
2023/11/06 00:44:27;;;;;;;6.97;1.40;;;8.60;99.90;;;7.68;100.00;99734.09;4169886;28;20041;-76
2023/11/06 00:46:28;;;;;;;6.43;1.05;;;8.50;99.90;;;7.63;100.00;99739.00;4169997;28;20044;-77
2023/11/06 00:48:29;;;;;;;5.03;1.00;;;8.40;99.90;;;7.60;100.00;99745.41;4169047;28;20026;-76
2023/11/06 00:50:30;;;;;;;2.70;0.70;;;8.40;99.90;;;7.55;100.00;99752.97;4169935;28;20025;-76
2023/11/06 00:52:31;;;;;;;7.75;1.48;;;8.30;99.90;;;7.50;100.00;99747.34;4170169;28;20083;-76
2023/11/06 00:54:32;;;;;;;4.88;1.52;;;8.30;99.90;;;7.48;100.00;99751.94;4169878;28;20032;-76
2023/11/06 00:56:32;;;;;;;5.00;1.58;;;8.30;99.90;;;7.48;100.00;99749.31;4170029;28;20034;-76
2023/11/06 00:58:33;;;;;;;5.00;1.10;;;8.30;99.90;;;7.54;100.00;99756.56;4170033;28;20021;-76
2023/11/06 01:00:34;;;;;;;7.35;1.90;;;8.30;99.90;;;7.61;100.00;99756.75;4170101;28;20032;-76
2023/11/06 01:02:35;;;;;;;12.13;1.40;;;8.30;99.90;;;7.67;100.00;99762.16;4169819;28;20022;-77
2023/11/06 01:04:36;;;;;;;6.07;1.50;;;8.40;99.90;;;7.74;100.00;99764.94;4169940;28;20059;-77
2023/11/06 01:06:37;;;;;;;7.28;1.30;;;8.50;99.90;;;7.86;100.00;99762.81;4168680;28;20021;-77
2023/11/06 01:08:38;;;;;;;6.60;1.15;;;8.60;99.90;;;7.97;100.00;99770.41;4169859;28;20029;-77
2023/11/06 01:10:38;;;;;;;10.43;2.15;;;8.70;99.90;;;8.08;100.00;99767.44;4169347;28;20032;-77
2023/11/06 01:12:39;;;;;;;8.63;1.70;;;8.70;99.90;;;8.21;100.00;99765.16;4169790;28;20038;-76
2023/11/06 01:14:40;;;;;;;11.90;1.65;;;8.80;99.90;;;8.30;100.00;99767.63;4169832;28;20017;-77
2023/11/06 01:16:41;;;;;;;10.82;2.75;;;8.90;99.90;;;8.38;100.00;99755.50;4169718;28;20083;-76
2023/11/06 01:18:42;;;;;;;8.80;2.22;;;9.00;99.90;;;8.42;100.00;99762.88;4168780;28;20028;-77
2023/11/06 01:20:42;;;;;;;10.90;2.85;;;9.10;99.90;;;8.44;100.00;99760.91;4169574;28;20028;-76
2023/11/06 01:22:43;;;;;;;11.48;1.60;;;9.10;99.90;;;8.51;100.00;99756.59;4185061;28;20029;-77
2023/11/06 01:24:44;;;;;;;11.82;2.28;;;9.20;99.90;;;8.59;100.00;99764.50;4168439;28;20030;-77
2023/11/06 01:26:45;;;;;;;13.18;1.42;;;9.30;99.90;;;8.61;100.00;99765.16;4168264;28;20033;-76
2023/11/06 01:28:46;;;;;;;8.95;1.75;;;9.30;99.90;;;8.65;100.00;99768.25;4171397;28;20083;-76
2023/11/06 01:30:47;;;;;;;12.23;3.17;;;9.30;99.90;;;8.66;100.00;99764.66;4159420;28;20029;-76
2023/11/06 01:32:47;;;;;;;11.27;2.55;;;9.40;99.90;;;8.67;100.00;99775.00;4169501;28;20035;-76
2023/11/06 01:34:48;;;;;;;13.77;1.88;;;9.40;99.90;;;8.64;100.00;99772.69;4168138;28;20017;-76
2023/11/06 01:36:49;;;;;;;7.13;1.25;;;9.40;99.90;;;8.64;100.00;99777.94;4169018;28;20030;-77
2023/11/06 01:38:50;;;;;;;15.77;2.20;;;9.40;99.90;;;8.60;100.00;99774.00;4169300;28;20377;-76
2023/11/06 01:40:51;;;;;;;10.73;1.45;;;9.30;99.90;;;8.61;100.00;99780.91;4168198;28;20037;-76
2023/11/06 01:42:52;;;;;;;7.05;1.35;;;9.30;99.90;;;8.56;100.00;99772.72;4169265;28;20025;-76
2023/11/06 01:44:53;;;;;;;7.13;1.25;;;9.30;99.90;;;8.54;100.00;99777.31;4167700;28;20140;-76
2023/11/06 01:46:54;;;;;;;9.93;1.27;;;9.30;99.90;;;8.47;100.00;99776.34;4169399;28;20038;-76
2023/11/06 01:48:56;;;;;;;10.35;1.40;;;9.20;99.90;;;8.36;100.00;99778.50;4168043;28;20044;-77
2023/11/06 01:50:58;;;;;;;12.48;1.75;;;9.10;99.90;;;8.28;100.00;99776.66;4167868;28;20022;-76
2023/11/06 01:53:06;;;;;;;12.18;1.55;;;9.00;99.90;;;8.24;100.00;99780.59;4167832;28;20033;-76
2023/11/06 01:55:07;;;;;;;11.93;2.28;;;9.00;99.90;;;8.15;100.00;99778.97;4168015;28;20379;-76
2023/11/06 01:57:08;;;;;;;11.43;1.52;;;8.90;99.90;;;8.15;100.00;99790.25;4167829;28;20056;-76
2023/11/06 01:59:09;;;;;;;10.27;1.17;;;8.90;99.90;;;8.08;100.00;99775.34;4167947;28;20025;-76
2023/11/06 02:01:11;;;;;;;6.25;1.08;;;8.90;99.90;;;8.07;100.00;99776.31;4167994;28;20060;-76
2023/11/06 02:03:13;;;;;;;11.98;1.48;;;8.80;99.90;;;8.05;100.00;99780.91;4167918;28;20022;-77
2023/11/06 02:05:14;;;;;;;11.35;1.45;;;8.80;99.90;;;8.13;100.00;99788.78;4167730;28;20111;-76
2023/11/06 02:07:15;;;;;;;7.72;1.83;;;8.90;99.90;;;8.16;100.00;99784.03;4167665;28;20037;-76
2023/11/06 02:09:17;;;;;;;10.35;1.27;;;8.90;99.90;;;8.24;100.00;99783.22;4167661;28;20045;-76
2023/11/06 02:11:19;;;;;;;12.30;1.95;;;9.00;99.90;;;8.30;100.00;99793.13;4168973;28;20021;-76
2023/11/06 02:13:21;;;;;;;11.85;2.30;;;9.00;99.90;;;8.37;100.00;99791.44;4167846;28;20488;-76
2023/11/06 02:15:29;;;;;;;12.55;2.33;;;9.10;99.90;;;8.47;100.00;99793.91;4168891;28;20025;-76
2023/11/06 02:17:30;;;;;;;12.57;1.55;;;9.20;99.90;;;8.51;100.00;99790.78;4167874;28;20032;-77
2023/11/06 02:19:31;;;;;;;15.18;3.15;;;9.20;99.90;;;8.57;100.00;99789.31;4167703;28;20104;-76
2023/11/06 02:21:32;;;;;;;10.05;1.45;;;9.30;99.90;;;8.60;100.00;99791.63;4168583;28;20022;-77
2023/11/06 02:23:33;;;;;;;7.20;1.48;;;9.30;99.90;;;8.58;100.00;99802.28;4168777;28;20025;-76
2023/11/06 02:25:34;;;;;;;9.00;1.60;;;9.30;99.90;;;8.62;100.00;99806.22;4168806;28;20052;-76
2023/11/06 02:27:37;;;;;;;7.55;1.10;;;9.30;99.90;;;8.64;100.00;99809.50;4168845;28;20029;-76
2023/11/06 02:29:38;;;;;;;9.30;0.80;;;9.30;99.90;;;8.63;100.00;99793.91;4168585;28;20064;-76
2023/11/06 02:31:39;;;;;;;8.80;1.17;;;9.40;99.90;;;8.66;100.00;99802.25;4167346;28;20105;-76
2023/11/06 02:33:40;;;;;;;5.30;0.90;;;9.40;99.90;;;8.61;100.00;99795.88;4167470;28;20025;-77
2023/11/06 02:35:41;;;;;;;4.25;0.90;;;9.30;99.90;;;8.54;100.00;99798.31;4168458;28;20438;-76
2023/11/06 02:37:42;;;;;;;3.45;1.13;;;9.30;99.90;;;8.45;100.00;99796.72;4168692;28;20041;-77
2023/11/06 02:39:43;;;;;;;6.13;1.20;;;9.30;99.90;;;8.42;100.00;99799.69;4168435;28;20397;-77
2023/11/06 02:41:44;;;;;;;6.70;0.93;;;9.20;99.90;;;8.30;100.00;99793.13;4168360;28;20037;-76
2023/11/06 02:43:45;;;;;;;6.30;1.13;;;9.10;99.90;;;8.18;100.00;99797.03;4167304;28;20504;-76
2023/11/06 02:45:46;;;;;;;8.65;1.30;;;9.00;99.90;;;8.11;100.00;99796.03;4168205;28;20044;-77
2023/11/06 02:47:47;;;;;;;5.85;0.98;;;8.90;99.90;;;8.03;100.00;99788.97;4168564;28;20408;-76
2023/11/06 02:49:47;;;;;;;6.95;0.90;;;8.90;99.90;;;7.96;100.00;99792.38;4168521;28;20036;-76
2023/11/06 02:51:48;;;;;;;5.50;1.60;;;8.80;99.90;;;7.88;100.00;99793.22;4167153;28;20028;-76
2023/11/06 02:53:49;;;;;;;6.25;0.75;;;8.70;99.90;;;7.82;100.00;99802.53;4168509;28;20040;-77
2023/11/06 02:55:50;;;;;;;4.40;0.82;;;8.70;99.90;;;7.76;100.00;99812.88;4168604;28;20388;-77
2023/11/06 02:57:51;;;;;;;12.38;1.42;;;8.60;99.90;;;7.71;100.00;99815.97;4167253;28;20481;-77
2023/11/06 02:59:52;;;;;;;2.97;0.93;;;8.50;99.90;;;7.65;100.00;99811.34;4168605;28;20036;-76
2023/11/06 03:01:53;;;;;;;5.30;0.70;;;8.50;99.90;;;7.60;100.00;99799.69;4168460;28;20026;-77
2023/11/06 03:03:53;;;;;;;5.82;0.65;;;8.40;99.90;;;7.56;100.00;99809.69;4167266;28;20026;-76
2023/11/06 03:05:54;;;;;;;7.30;0.80;;;8.40;99.90;;;7.55;100.00;99804.63;4168071;28;20032;-76
2023/11/06 03:07:55;;;;;;;4.13;0.73;;;8.30;99.90;;;7.53;100.00;99807.38;4167220;28;20025;-77
2023/11/06 03:09:56;;;;;;;5.35;0.80;;;8.30;99.90;;;7.49;100.00;99802.63;4168400;28;20025;-76
2023/11/06 03:11:57;;;;;;;4.82;0.60;;;8.30;99.90;;;7.45;100.00;99796.88;4168480;28;20108;-76
2023/11/06 03:13:58;;;;;;;2.55;0.55;;;8.20;99.90;;;7.40;100.00;99785.22;4168198;28;20485;-76
2023/11/06 03:16:00;;;;;;;4.82;0.60;;;8.20;99.90;;;7.34;100.00;99797.16;4167237;28;20488;-77
2023/11/06 03:18:01;;;;;;;6.15;0.85;;;8.20;99.90;;;7.30;100.00;99801.06;4167359;28;20017;-77
2023/11/06 03:20:07;;;;;;;6.15;0.73;;;8.10;99.90;;;7.24;100.00;99797.28;4167104;28;20021;-76
2023/11/06 03:22:08;;;;;;;8.48;1.40;;;8.10;99.90;;;7.24;100.00;99802.53;4183929;28;20029;-76
2023/11/06 03:24:09;;;;;;;4.90;1.35;;;8.00;99.90;;;7.28;100.00;99805.66;4166981;28;20025;-76
2023/11/06 03:26:09;;;;;;;1.85;0.82;;;8.10;99.90;;;7.32;100.00;99808.81;4168333;28;20026;-76
2023/11/06 03:28:10;;;;;;;3.63;1.17;;;8.10;99.90;;;7.33;100.00;99800.75;4168357;28;20071;-76
2023/11/06 03:30:12;;;;;;;4.22;0.57;;;8.10;99.90;;;7.32;100.00;99803.56;4168192;28;20029;-77
2023/11/06 03:32:12;;;;;;;4.50;0.70;;;8.10;99.90;;;7.33;100.00;99802.56;4167195;28;20017;-76
2023/11/06 03:34:13;;;;;;;5.45;0.63;;;8.10;99.90;;;7.35;100.00;99811.13;4167060;28;20025;-77
2023/11/06 03:36:14;;;;;;;4.63;0.50;;;8.10;99.90;;;7.37;100.00;99812.59;4168056;28;20079;-76
2023/11/06 03:38:15;;;;;;;6.57;1.00;;;8.20;99.90;;;7.39;100.00;99813.25;4167974;28;20029;-77
2023/11/06 03:40:16;;;;;;;4.45;0.65;;;8.20;99.90;;;7.34;100.00;99812.09;4168224;28;20017;-76
2023/11/06 03:42:17;;;;;;;5.78;0.70;;;8.10;99.90;;;7.26;100.00;99814.69;4169869;28;20413;-76
2023/11/06 03:44:19;;;;;;;3.05;0.52;;;8.10;99.90;;;7.15;100.00;99818.38;4170975;28;20083;-76
2023/11/06 03:46:20;;;;;;;3.70;0.60;;;8.00;99.90;;;7.06;100.00;99809.66;4171206;28;20079;-76
2023/11/06 03:48:21;;;;;;;5.47;0.60;;;7.90;99.90;;;6.99;100.00;99815.69;4171285;28;20033;-77
2023/11/06 03:50:22;;;;;;;4.13;0.75;;;7.80;99.90;;;6.92;100.00;99822.53;4170997;28;20103;-76
2023/11/06 03:52:23;;;;;;;5.50;1.05;;;7.70;99.90;;;6.85;100.00;99817.06;4171171;28;20045;-76
2023/11/06 03:54:24;;;;;;;6.22;0.73;;;7.60;99.90;;;6.79;100.00;99819.47;4170916;28;20029;-76
2023/11/06 03:56:25;;;;;;;4.10;0.63;;;7.60;99.90;;;6.72;100.00;99816.66;4169960;28;20095;-76
2023/11/06 03:58:25;;;;;;;6.53;0.50;;;7.60;99.90;;;6.66;100.00;99823.34;4170967;28;20029;-76
2023/11/06 04:00:26;;;;;;;3.20;0.45;;;7.50;99.90;;;6.61;100.00;99820.34;4170940;28;20036;-76
2023/11/06 04:02:27;;;;;;;5.88;0.90;;;7.40;99.90;;;6.58;100.00;99818.03;4170883;28;20056;-76
2023/11/06 04:04:28;;;;;;;4.60;0.60;;;7.40;99.90;;;6.55;100.00;99823.59;4169712;28;20038;-77
2023/11/06 04:06:30;;;;;;;1.83;0.70;;;7.30;99.90;;;6.55;100.00;99822.75;4169439;28;20033;-77
2023/11/06 04:08:31;;;;;;;2.30;0.50;;;7.30;99.90;;;6.61;100.00;99825.59;4170834;28;20060;-76
2023/11/06 04:10:32;;;;;;;7.45;1.23;;;7.40;99.90;;;6.78;100.00;99841.44;4170734;28;20407;-76
2023/11/06 04:12:32;;;;;;;4.15;0.70;;;7.50;99.90;;;6.94;100.00;99847.59;4169534;28;20033;-76
2023/11/06 04:14:34;;;;;;;4.28;0.75;;;7.60;99.90;;;7.04;100.00;99847.50;4170708;28;20033;-76
2023/11/06 04:16:35;;;;;;;2.00;0.55;;;7.70;99.90;;;7.02;100.00;99844.19;4170685;28;20026;-77
2023/11/06 04:18:36;;;;;;;7.65;0.90;;;7.70;99.90;;;6.98;100.00;99845.50;4169563;28;20030;-77
2023/11/06 04:20:41;;;;;;;5.35;0.60;;;7.70;99.90;;;6.93;100.00;99847.78;4169074;28;20169;-76
2023/11/06 04:22:42;;;;;;;3.95;0.77;;;7.70;99.90;;;6.90;100.00;99842.84;4170646;28;20085;-77
2023/11/06 04:24:43;;;;;;;5.78;0.80;;;7.70;99.90;;;6.87;100.00;99841.31;4170599;28;20030;-76
2023/11/06 04:26:44;;;;;;;7.63;1.08;;;7.60;99.90;;;6.88;100.00;99842.97;4170501;28;20055;-76
2023/11/06 04:28:44;;;;;;;7.30;0.90;;;7.70;99.90;;;6.89;100.00;99855.13;4170371;28;20029;-77
2023/11/06 04:30:45;;;;;;;9.25;2.22;;;7.60;99.90;;;6.86;100.00;99838.88;4170533;28;20029;-76
2023/11/06 04:32:46;;;;;;;3.83;1.23;;;7.60;99.90;;;6.88;100.00;99847.41;4169317;28;20021;-77
2023/11/06 04:34:47;;;;;;;6.90;1.08;;;7.60;99.90;;;6.87;100.00;99837.91;4170370;28;20488;-76
2023/11/06 04:36:48;;;;;;;9.15;1.33;;;7.60;99.90;;;6.87;100.00;99841.31;4168825;28;20030;-77
2023/11/06 04:38:49;;;;;;;4.90;0.80;;;7.60;99.90;;;6.85;100.00;99845.06;4170377;28;20029;-76
2023/11/06 04:40:50;;;;;;;4.15;0.95;;;7.60;99.90;;;6.79;100.00;99845.69;4170371;28;20049;-77
2023/11/06 04:42:51;;;;;;;12.60;1.27;;;7.50;99.90;;;6.79;100.00;99843.06;4169152;28;20040;-77
2023/11/06 04:44:52;;;;;;;5.63;1.08;;;7.50;99.90;;;6.79;100.00;99843.06;4169794;28;20042;-76
2023/11/06 04:46:52;;;;;;;10.30;1.50;;;7.50;99.90;;;6.77;100.00;99840.63;4170287;28;20034;-76
2023/11/06 04:48:54;;;;;;;5.78;1.00;;;7.50;99.90;;;6.77;100.00;99843.25;4170207;28;20040;-76
2023/11/06 04:50:55;;;;;;;6.50;1.20;;;7.50;99.90;;;6.83;100.00;99852.28;4168700;28;20160;-77
2023/11/06 04:52:56;;;;;;;5.82;0.98;;;7.50;99.90;;;6.83;100.00;99854.91;4169963;28;20033;-77
2023/11/06 04:54:57;;;;;;;6.22;1.25;;;7.50;99.90;;;6.80;100.00;99848.19;4168751;28;20125;-76
2023/11/06 04:56:58;;;;;;;5.72;0.95;;;7.60;99.90;;;6.82;100.00;99850.63;4170030;28;20413;-76
2023/11/06 04:58:59;;;;;;;12.73;1.77;;;7.50;99.90;;;6.95;100.00;99851.88;4170048;28;20025;-76
2023/11/06 05:01:00;;;;;;;10.75;1.55;;;7.60;99.90;;;7.02;100.00;99852.06;4169811;28;20022;-77
2023/11/06 05:03:00;;;;;;;9.55;2.35;;;7.70;99.90;;;7.08;100.00;99851.44;4170140;28;20025;-76
2023/11/06 05:05:01;;;;;;;11.85;1.65;;;7.80;99.90;;;7.10;100.00;99857.38;4168570;28;20047;-77
2023/11/06 05:07:04;;;;;;;14.38;1.65;;;7.80;99.90;;;7.08;100.00;99854.06;4169859;28;20374;-76
2023/11/06 05:09:05;;;;;;;8.63;1.13;;;7.80;99.90;;;7.07;100.00;99862.94;4168678;28;20413;-77
2023/11/06 05:11:05;;;;;;;12.25;1.30;;;7.80;99.90;;;7.06;100.00;99861.28;4169897;28;20030;-76
2023/11/06 05:13:06;;;;;;;12.50;1.95;;;7.80;99.90;;;7.03;100.00;99861.59;4169820;28;20025;-77
2023/11/06 05:15:09;;;;;;;9.07;1.52;;;7.80;99.90;;;7.02;100.00;99858.13;4169647;28;20033;-76
2023/11/06 05:17:10;;;;;;;7.78;1.35;;;7.80;99.90;;;6.97;100.00;99862.19;4169525;28;20021;-76
2023/11/06 05:19:11;;;;;;;11.98;2.63;;;7.70;99.90;;;6.94;100.00;99862.50;4169760;28;20026;-77
2023/11/06 05:21:22;;;;;;;10.18;1.80;;;7.70;99.90;;;6.89;100.00;99856.91;4169556;28;20522;-76
2023/11/06 05:23:23;;;;;;;11.20;1.20;;;7.70;99.90;;;6.88;100.00;99865.75;4168462;28;20455;-76
2023/11/06 05:25:23;;;;;;;13.40;1.75;;;7.70;99.90;;;6.86;100.00;99865.09;4169461;28;20025;-76
2023/11/06 05:27:24;;;;;;;5.30;1.40;;;7.60;99.90;;;6.81;100.00;99859.50;4169656;28;20497;-77
2023/11/06 05:29:26;;;;;;;6.03;1.33;;;7.60;99.90;;;6.80;100.00;99855.22;4169540;28;20029;-77
2023/11/06 05:31:28;;;;;;;7.93;1.10;;;7.60;99.90;;;6.86;100.00;99865.09;4168328;28;20477;-77
2023/11/06 05:33:29;;;;;;;10.63;1.30;;;7.60;99.90;;;6.92;100.00;99867.09;4169317;28;20583;-76
2023/11/06 05:35:30;;;;;;;12.60;1.90;;;7.70;99.90;;;7.06;100.00;99872.59;4168208;28;20029;-77
2023/11/06 05:37:31;;;;;;;10.25;1.58;;;7.80;99.90;;;7.20;100.00;99864.13;4168502;28;20022;-77
2023/11/06 05:39:32;;;;;;;8.63;1.23;;;8.00;99.90;;;7.33;100.00;99858.47;4169299;28;20030;-77
2023/11/06 05:41:33;;;;;;;6.82;1.10;;;8.00;99.90;;;7.39;100.00;99870.97;4169230;28;20044;-76
2023/11/06 05:43:33;;;;;;;10.68;2.08;;;8.10;99.90;;;7.40;100.00;99874.41;4168370;28;20033;-77
2023/11/06 05:45:34;;;;;;;8.07;1.33;;;8.10;99.90;;;7.36;100.00;99880.94;4169036;28;20053;-76
2023/11/06 05:47:36;;;;;;;9.93;1.90;;;8.10;99.90;;;7.34;100.00;99875.88;4168097;28;20033;-77
2023/11/06 05:49:38;;;;;;;12.68;1.30;;;8.10;99.90;;;7.37;100.00;99875.56;4167946;28;20032;-76
2023/11/06 05:51:39;;;;;;;9.95;1.95;;;8.10;99.90;;;7.40;100.00;99879.66;4167841;28;20404;-76
2023/11/06 05:53:40;;;;;;;11.90;1.42;;;8.20;99.90;;;7.40;100.00;99879.66;4168075;28;20049;-76
2023/11/06 05:55:41;;;;;;;9.43;1.13;;;8.20;99.90;;;7.34;100.00;99889.00;4169430;28;20036;-77
2023/11/06 05:57:42;;;;;;;9.90;1.40;;;8.10;99.90;;;7.27;100.00;99887.13;4168931;28;20022;-77
2023/11/06 05:59:42;;;;;;;7.45;0.80;;;8.00;99.90;;;7.16;100.00;99891.69;4168779;28;20049;-76
2023/11/06 06:01:43;;;;;;;11.00;2.05;;;7.90;99.90;;;7.09;100.00;99895.88;4167976;28;20028;-76
2023/11/06 06:03:44;;;;;;;12.98;2.83;;;7.90;99.90;;;7.09;100.00;99895.06;4168993;28;20032;-76
2023/11/06 06:05:45;;;;;;;9.38;1.40;;;7.90;99.90;;;7.07;100.00;99892.59;4168294;28;20026;-77
2023/11/06 06:07:46;;;;;;;12.52;2.95;;;7.90;99.90;;;7.08;100.00;99888.16;4169063;28;20033;-76
2023/11/06 06:09:47;;;;;;;8.63;1.27;;;7.90;99.90;;;7.07;100.00;99889.16;4174687;28;20028;-76
2023/11/06 06:11:48;;;;;;;9.15;1.40;;;7.80;99.90;;;7.04;100.00;99892.06;4175470;28;20033;-76
2023/11/06 06:13:49;;;;;;;5.55;1.08;;;7.80;99.90;;;6.96;100.00;99882.34;4168819;28;20028;-76
2023/11/06 06:15:49;;;;;;;7.90;1.00;;;7.80;99.90;;;6.96;100.00;99892.84;4168432;28;20025;-76
2023/11/06 06:17:50;;;;;;;9.70;1.27;;;7.70;99.90;;;6.91;100.00;99894.28;4168955;28;20026;-77
2023/11/06 06:19:51;;;;;;;9.88;1.13;;;7.70;99.90;;;6.87;100.00;99888.50;4168705;28;20071;-77
2023/11/06 06:21:52;;;;;;;5.32;1.52;;;7.70;99.90;;;6.84;100.00;99890.63;4168771;28;20496;-76
2023/11/06 06:23:53;;;;;;;13.45;1.35;;;7.60;99.90;;;6.87;100.00;99890.34;4168791;28;20021;-77
2023/11/06 06:25:53;;;;;;;13.98;2.15;;;7.60;99.90;;;6.86;100.00;99891.28;4168858;28;20040;-77
2023/11/06 06:27:54;;;;;;;8.55;1.80;;;7.60;99.90;;;6.87;100.00;99895.56;4167476;28;20036;-76
2023/11/06 06:29:55;;;;;;;12.90;1.48;;;7.70;99.90;;;6.92;100.00;99896.75;4168115;28;20064;-76
2023/11/06 06:31:56;;;;;;;4.72;1.30;;;7.70;99.90;;;6.94;100.00;99893.97;4168430;28;20538;-76
2023/11/06 06:33:58;;;;;;;6.25;1.20;;;7.70;99.90;;;6.98;100.00;99905.81;4168326;28;20045;-76
2023/11/06 06:35:59;;;;;;;8.55;1.08;;;7.80;99.90;;;7.01;100.00;99905.50;4166533;28;20515;-76
2023/11/06 06:38:00;;;;;;;9.63;1.30;;;7.80;99.90;;;7.10;100.00;99909.81;4168492;28;20026;-76
2023/11/06 06:40:06;;;;;;;7.10;1.40;;;7.80;99.90;;;7.27;100.00;99915.97;4168107;28;20029;-76
2023/11/06 06:42:06;;;;;;;12.55;1.83;;;8.00;99.90;;;7.43;100.00;99905.59;4168628;28;20506;-76
2023/11/06 06:44:07;;;;;;;14.18;1.83;;;8.10;99.90;;;7.60;100.00;99913.38;4168255;28;20053;-77
2023/11/06 06:46:09;;;;;;;9.35;1.27;;;8.20;99.90;;;7.68;100.00;99916.03;4167086;28;20029;-77
2023/11/06 06:48:10;;;;;;;8.20;2.63;;;8.30;99.90;;;7.74;100.00;99915.41;4167321;28;20056;-77
2023/11/06 06:50:11;;;;;;;12.32;1.50;;;8.40;99.90;;;7.79;100.00;99917.56;4167275;28;20030;-77
2023/11/06 06:52:13;;;;;;;10.18;1.85;;;8.50;99.90;;;7.80;100.00;99921.81;4168631;28;20036;-77
2023/11/06 06:54:14;;;;;;;10.57;2.10;;;8.50;99.90;;;7.74;100.00;99912.78;4167202;28;20018;-77
2023/11/06 06:56:14;;;;;;;8.60;1.38;;;8.50;99.90;;;7.72;100.00;99914.75;4150812;28;20033;-77
2023/11/06 06:58:16;;;;;;;7.38;1.65;;;8.50;99.90;;;7.71;100.00;99913.09;4167448;28;20026;-77
2023/11/06 07:00:18;;;;;;;5.80;1.20;;;8.40;99.90;;;7.72;100.00;99916.53;4168428;28;20030;-77
2023/11/06 07:02:19;;;;;;;6.70;1.60;;;8.50;99.90;;;7.75;100.00;99921.47;4168404;28;20053;-77
2023/11/06 07:04:20;;;;;;;5.88;1.13;;;8.50;99.90;;;7.74;100.00;99923.28;4168233;28;20051;-77
2023/11/06 07:06:21;;;;;;;5.90;1.02;;;8.50;99.90;;;7.76;100.00;99928.38;4168081;28;20021;-80
2023/11/06 07:08:21;;;;;;;4.28;1.00;;;8.50;99.90;;;7.82;100.00;99932.19;4167294;28;20029;-81
2023/11/06 07:10:22;;;;;;;7.30;1.30;;;8.50;99.90;;;7.88;100.00;99939.44;4168387;28;20021;-82
2023/11/06 07:12:23;;;;;;;7.50;2.15;;;8.60;99.90;;;7.93;100.00;99948.47;4168220;28;20501;-81
2023/11/06 07:14:24;;;;;;;5.90;1.77;;;8.70;99.90;;;8.04;100.00;99960.47;4168413;28;20028;-81
2023/11/06 07:16:25;;;;;;;9.73;2.40;;;8.70;99.90;;;8.10;100.00;99951.97;4168130;28;20496;-80
2023/11/06 07:18:26;;;;;;;8.95;2.88;;;8.70;99.90;;;8.14;100.00;99950.66;4171562;28;20480;-80
2023/11/06 07:20:27;;;;;;;11.32;2.50;;;8.80;99.90;;;8.12;100.00;99963.16;4170135;28;20507;-79
2023/11/06 07:22:28;;;;;;;10.57;2.20;;;8.80;99.90;;;8.13;100.00;99956.91;4171544;28;20029;-80
2023/11/06 07:24:29;;;;;;;13.90;3.38;;;8.80;99.90;;;8.14;100.00;99954.13;4171562;28;20488;-80
2023/11/06 07:26:30;;;;;;;10.35;2.30;;;8.80;99.90;;;8.14;100.00;99951.50;4171409;28;20029;-79
2023/11/06 07:28:31;;;;;;;15.35;2.30;;;8.80;99.90;;;8.13;100.00;99952.47;4171304;28;20035;-76
2023/11/06 07:30:32;;;;;;;8.38;1.92;;;8.80;99.90;;;8.14;100.00;99955.94;4171482;28;20033;-76
2023/11/06 07:32:33;;;;;;;9.85;2.50;;;8.80;99.90;;;8.17;100.00;99964.31;4171435;28;20033;-76
2023/11/06 07:34:34;;;;;;;9.50;2.03;;;8.90;99.90;;;8.25;100.00;99979.25;4170021;28;20025;-76
2023/11/06 07:36:35;;;;;;;8.73;1.73;;;8.90;99.90;;;8.31;100.00;99987.38;4171149;28;20034;-76
2023/11/06 07:38:36;;;;;;;14.27;2.45;;;9.00;99.90;;;8.37;100.00;99996.41;4170080;28;20014;-76
2023/11/06 07:40:38;;;;;;;12.82;1.70;;;9.10;99.90;;;8.44;100.00;99999.22;4170128;28;20044;-77
2023/11/06 07:42:40;;;;;;;9.25;2.58;;;9.10;99.90;;;8.46;100.00;100000.72;4169831;28;20112;-76
2023/11/06 07:44:41;;;;;;;13.98;1.80;;;9.20;99.90;;;8.50;100.00;99991.53;4170719;28;20041;-77
2023/11/06 07:46:42;;;;;;;9.15;1.65;;;9.20;99.90;;;8.59;100.00;99985.31;4171231;28;20033;-77
2023/11/06 07:48:42;;;;;;;11.38;1.67;;;9.30;99.90;;;8.61;100.00;99988.59;4170102;28;20030;-77
2023/11/06 07:50:43;;;;;;;10.32;1.67;;;9.30;99.90;;;8.65;100.00;99989.94;4170562;28;20029;-76
2023/11/06 07:52:44;;;;;;;6.68;1.67;;;9.30;99.90;;;8.68;100.00;99989.59;4171006;28;20049;-76
2023/11/06 07:54:46;;;;;;;15.00;1.85;;;9.30;99.90;;;8.67;100.00;99982.69;4170811;28;20029;-77
2023/11/06 07:56:48;;;;;;;8.75;1.60;;;9.40;99.90;;;8.73;100.00;99989.94;4169756;28;20044;-76
2023/11/06 07:58:49;;;;;;;12.38;1.83;;;9.40;99.90;;;8.74;100.00;99996.84;4171115;28;20026;-76
2023/11/06 08:00:50;;;;;;;7.82;1.65;;;9.40;99.90;;;8.77;100.00;100003.56;4170877;28;20416;-79
2023/11/06 08:02:51;;;;;;;7.45;2.13;;;9.50;99.90;;;8.79;100.00;99997.16;4170912;28;20036;-79
2023/11/06 08:04:52;;;;;;;9.00;1.60;;;9.50;99.90;;;8.83;100.00;100006.38;4170276;28;20079;-79
2023/11/06 08:06:53;;;;;;;7.20;1.58;;;9.60;99.90;;;8.84;100.00;100007.22;4153006;28;20485;-79
2023/11/06 08:08:54;;;;;;;8.82;1.77;;;9.60;99.90;;;8.83;100.00;100011.66;4190797;28;20110;-79
2023/11/06 08:10:55;;;;;;;10.60;2.58;;;9.60;99.90;;;8.84;100.00;100031.69;4169372;28;20037;-76
2023/11/06 08:12:56;;;;;;;12.77;1.65;;;9.60;99.90;;;8.85;100.00;100025.44;4169689;28;20037;-76
2023/11/06 08:14:57;;;;;;;11.95;1.58;;;9.60;99.90;;;8.89;100.00;100039.09;4170706;28;20485;-77
2023/11/06 08:16:57;;;;;;;9.88;2.40;;;9.60;99.90;;;8.92;100.00;100043.22;4170717;28;20026;-77
2023/11/06 08:18:59;;;;;;;10.43;1.88;;;9.60;99.90;;;8.92;100.00;100053.72;4170516;28;20029;-76
2023/11/06 08:20:59;;;;;;;5.80;1.75;;;9.70;99.90;;;8.94;100.00;100057.84;4170593;28;20033;-76
2023/11/06 08:23:01;;;;;;;10.68;1.73;;;9.70;99.90;;;8.94;100.00;100054.38;4170630;28;20083;-74
2023/11/06 08:25:02;;;;;;;7.22;1.13;;;9.70;99.90;;;8.96;100.00;100052.44;4170545;28;20034;-75
2023/11/06 08:27:04;;;;;;;6.30;1.20;;;9.70;99.90;;;8.95;100.00;100053.41;4170379;28;20037;-75
2023/11/06 08:29:05;;;;;;;6.00;1.02;;;9.70;99.90;;;8.94;100.00;100055.22;4169093;28;20051;-75
2023/11/06 08:31:06;;;;;;;5.25;1.38;;;9.70;99.90;;;8.92;100.00;100046.66;4169256;28;20025;-76
2023/11/06 08:33:07;;;;;;;3.85;1.00;;;9.70;99.90;;;8.95;100.00;100058.66;4170474;28;20075;-76